4W9 weather

Pink Hill Airport
Pink Hill, North Carolina, United States

Public forecast

Using degrees Fahrenheit for public forecast. Weather courtesy of forecast.io.

METAR (pilot weather report)

Closest report is Duplin County Airport, 12.5 nm (23.1 km) WSW. Retrieved 2019/06/26 01:20 UTC (0 seconds ago):

KDPL 260120Z AUTO 00000KT 10SM CLR 24/19 A2997 RMK AO2

TAF (pilot weather forecast)

Forecast is more than 12 hours old.

Closest forecast is Albert J Ellis Airport, 14.6 nm (27.1 km) SSE. Retrieved 2019/06/25 00:24 UTC (1 day ago):

TAF KOAJ 252321Z 2600/2624 31004KT P6SM SCT060 FM261500 01008KT P6SM SCT060 AMD LTD TO CLD VIS AND WIND